createdAt,value
2019-05-22T00:02:09.283Z,16.10
2019-05-22T00:04:42.233Z,16.00
2019-05-22T00:07:13.577Z,16.00
2019-05-22T00:09:45.093Z,16.10
2019-05-22T00:12:19.088Z,16.00
2019-05-22T00:14:50.163Z,16.00
2019-05-22T00:17:26.560Z,15.90
2019-05-22T00:19:55.860Z,15.80
2019-05-22T00:22:27.218Z,15.80
2019-05-22T00:24:58.724Z,15.90
2019-05-22T00:27:30.667Z,15.90
2019-05-22T00:30:02.296Z,15.80
2019-05-22T00:32:33.353Z,15.80
2019-05-22T00:35:02.509Z,15.80
2019-05-22T00:37:32.391Z,15.70
2019-05-22T00:40:03.161Z,15.70
2019-05-22T00:42:33.036Z,15.70
2019-05-22T00:45:04.829Z,15.60
2019-05-22T00:47:36.173Z,15.60
2019-05-22T00:50:08.744Z,15.50
2019-05-22T00:52:49.208Z,15.50
2019-05-22T00:55:39.397Z,15.50
2019-05-22T00:58:20.401Z,15.50
2019-05-22T01:00:52.210Z,15.50
2019-05-22T01:03:22.881Z,15.40
2019-05-22T01:05:52.339Z,15.50
2019-05-22T01:08:23.966Z,15.40
2019-05-22T01:10:54.829Z,15.40
2019-05-22T01:13:27.629Z,15.50
2019-05-22T01:15:58.738Z,15.50
2019-05-22T01:18:28.413Z,15.40
2019-05-22T01:21:00.576Z,15.30
2019-05-22T01:23:33.160Z,15.30
2019-05-22T01:26:03.195Z,15.20
2019-05-22T01:28:35.789Z,15.20
2019-05-22T01:31:24.225Z,15.10
2019-05-22T01:33:59.341Z,15.20
2019-05-22T01:36:32.651Z,15.20
2019-05-22T01:39:43.390Z,15.30
2019-05-22T01:42:17.318Z,15.20
2019-05-22T01:45:00.499Z,15.20
2019-05-22T01:47:49.219Z,15.20
2019-05-22T01:50:31.348Z,15.20
2019-05-22T01:53:02.613Z,15.10
2019-05-22T01:55:33.934Z,15.30
2019-05-22T01:58:03.939Z,15.30
2019-05-22T02:00:33.802Z,15.30
2019-05-22T02:03:03.479Z,15.20
2019-05-22T02:05:33.596Z,15.20
2019-05-22T02:08:04.082Z,15.30
2019-05-22T02:10:37.030Z,15.20
2019-05-22T02:13:09.575Z,15.30
2019-05-22T02:15:39.848Z,15.30
2019-05-22T02:18:15.297Z,15.30
2019-05-22T02:20:45.496Z,15.20
2019-05-22T02:23:17.169Z,15.10
2019-05-22T02:25:47.234Z,15.10
2019-05-22T02:28:16.529Z,15.20
2019-05-22T02:30:47.702Z,15.30
2019-05-22T02:33:19.021Z,15.10
2019-05-22T02:35:49.390Z,15.10
2019-05-22T02:38:19.122Z,15.10
2019-05-22T02:40:51.003Z,15.00
2019-05-22T02:43:26.548Z,15.00
2019-05-22T02:45:56.376Z,14.90
2019-05-22T02:48:42.648Z,14.90
2019-05-22T02:51:24.281Z,14.80
2019-05-22T02:53:56.542Z,14.80
2019-05-22T02:56:25.987Z,14.80
2019-05-22T02:58:55.735Z,14.80
2019-05-22T03:01:29.550Z,14.90
2019-05-22T03:03:59.117Z,15.00
2019-05-22T03:06:29.109Z,15.00
2019-05-22T03:09:19.046Z,14.90
2019-05-22T03:11:59.255Z,14.80
2019-05-22T03:14:33.183Z,14.60
2019-05-22T03:17:06.679Z,14.70
2019-05-22T03:19:44.075Z,14.70
2019-05-22T03:22:26.901Z,14.70
2019-05-22T03:24:57.976Z,14.70
2019-05-22T03:27:49.353Z,14.60
2019-05-22T03:30:29.851Z,14.60
2019-05-22T03:33:00.565Z,14.60
2019-05-22T03:35:31.598Z,14.70
2019-05-22T03:38:03.893Z,14.80
2019-05-22T03:40:34.959Z,14.70
2019-05-22T03:43:15.093Z,14.70
2019-05-22T03:45:44.839Z,14.80
2019-05-22T03:48:16.031Z,14.80
2019-05-22T03:50:45.207Z,14.70
2019-05-22T03:53:18.047Z,14.60
2019-05-22T03:55:48.634Z,14.60
2019-05-22T03:58:18.782Z,14.60
2019-05-22T04:00:50.597Z,14.50
2019-05-22T04:03:21.038Z,14.40
2019-05-22T04:05:52.661Z,14.50
2019-05-22T04:08:24.106Z,14.50
2019-05-22T04:10:59.928Z,14.40
2019-05-22T04:13:29.537Z,14.40
2019-05-22T04:15:59.602Z,14.40
2019-05-22T04:18:29.593Z,14.40
2019-05-22T04:21:00.665Z,14.30
2019-05-22T04:23:29.964Z,14.30
2019-05-22T04:26:01.334Z,14.30
2019-05-22T04:28:31.502Z,14.30
2019-05-22T04:31:01.863Z,14.20
2019-05-22T04:33:31.559Z,14.30
2019-05-22T04:36:01.705Z,14.20
2019-05-22T04:38:31.516Z,14.20
2019-05-22T04:41:03.217Z,14.00
2019-05-22T04:43:34.953Z,13.80
2019-05-22T04:46:06.514Z,13.70
2019-05-22T04:48:38.079Z,13.80
2019-05-22T04:51:30.052Z,13.90
2019-05-22T04:53:59.336Z,13.90
2019-05-22T04:56:29.871Z,13.90
2019-05-22T04:59:02.099Z,14.00
2019-05-22T05:01:31.664Z,13.90
2019-05-22T05:04:01.932Z,13.80
2019-05-22T05:06:33.303Z,13.90
2019-05-22T05:09:04.062Z,13.90
2019-05-22T05:11:34.121Z,13.90
2019-05-22T05:14:03.317Z,13.80
2019-05-22T05:16:32.274Z,13.80
2019-05-22T05:19:02.007Z,13.90
2019-05-22T05:21:31.150Z,13.80
2019-05-22T05:24:00.261Z,13.80
2019-05-22T05:26:31.805Z,13.90
2019-05-22T05:29:01.263Z,13.80
2019-05-22T05:31:30.913Z,13.70
2019-05-22T05:34:24.466Z,13.70
2019-05-22T05:36:55.982Z,13.60
2019-05-22T05:40:05.765Z,13.60
2019-05-22T05:42:34.991Z,13.70
2019-05-22T05:45:05.193Z,13.50
2019-05-22T05:47:35.095Z,13.40
2019-05-22T05:50:07.065Z,13.30
2019-05-22T05:52:37.221Z,13.30
2019-05-22T05:55:07.777Z,13.30
2019-05-22T05:58:24.819Z,13.30
2019-05-22T06:00:58.922Z,13.20
2019-05-22T06:03:37.769Z,13.30
2019-05-22T06:06:46.506Z,13.20
2019-05-22T06:09:20.020Z,13.30
2019-05-22T06:11:57.115Z,13.10
2019-05-22T06:14:29.328Z,12.80
2019-05-22T06:17:43.330Z,12.70
2019-05-22T06:20:19.349Z,12.80
2019-05-22T06:23:42.309Z,12.60
2019-05-22T06:26:15.352Z,12.50
2019-05-22T06:28:48.231Z,12.40
2019-05-22T06:31:47.228Z,12.30
2019-05-22T06:34:17.085Z,12.30
2019-05-22T06:36:46.736Z,12.40
2019-05-22T06:39:17.727Z,12.40
2019-05-22T06:41:48.536Z,12.40
2019-05-22T06:44:36.155Z,12.40
2019-05-22T06:47:10.085Z,12.40
2019-05-22T06:49:47.012Z,12.50
2019-05-22T06:52:17.115Z,12.50
2019-05-22T06:54:47.384Z,12.40
2019-05-22T06:57:34.689Z,12.60
2019-05-22T07:00:14.027Z,12.50
2019-05-22T07:02:41.702Z,12.50
2019-05-22T07:05:14.861Z,12.60
2019-05-22T07:08:12.983Z,12.50
2019-05-22T07:10:45.513Z,12.50
2019-05-22T07:13:14.973Z,12.60
2019-05-22T07:15:50.235Z,12.60
2019-05-22T07:18:20.856Z,12.60
2019-05-22T07:20:52.443Z,12.60
2019-05-22T07:23:28.964Z,12.60
2019-05-22T07:25:59.374Z,12.60
2019-05-22T07:28:29.073Z,12.60
2019-05-22T07:30:58.324Z,12.50
2019-05-22T07:33:28.018Z,12.60
2019-05-22T07:36:09.193Z,12.60
2019-05-22T07:38:28.925Z,12.50
2019-05-22T07:41:00.492Z,12.50
2019-05-22T07:43:29.787Z,12.50
2019-05-22T07:45:59.641Z,12.60
2019-05-22T07:48:31.022Z,12.80
2019-05-22T07:51:01.624Z,12.90
2019-05-22T07:53:30.733Z,12.80
2019-05-22T07:56:02.540Z,12.90
2019-05-22T07:58:32.256Z,12.90
2019-05-22T08:01:04.066Z,12.80
2019-05-22T08:03:34.933Z,12.70
2019-05-22T08:06:07.021Z,12.70
2019-05-22T08:08:38.002Z,12.80
2019-05-22T08:11:07.573Z,12.90
2019-05-22T08:13:37.954Z,12.90
2019-05-22T08:16:09.458Z,12.90
2019-05-22T08:18:41.503Z,13.00
2019-05-22T08:21:11.873Z,13.20
2019-05-22T08:23:41.324Z,13.10
2019-05-22T08:26:11.783Z,13.10
2019-05-22T08:28:41.604Z,13.10
2019-05-22T08:31:13.600Z,13.10
2019-05-22T08:33:43.201Z,13.10
2019-05-22T08:36:12.723Z,13.10
2019-05-22T08:38:44.663Z,13.00
2019-05-22T08:41:16.092Z,13.10
2019-05-22T08:44:16.247Z,13.10
2019-05-22T08:46:35.768Z,13.10
2019-05-22T08:49:05.121Z,13.00
2019-05-22T08:51:34.828Z,13.20
2019-05-22T08:54:06.052Z,13.30
2019-05-22T08:56:38.388Z,13.20
2019-05-22T08:59:18.913Z,13.10
2019-05-22T09:01:40.061Z,13.10
2019-05-22T09:04:10.190Z,13.40
2019-05-22T09:06:41.770Z,13.50
2019-05-22T09:09:11.009Z,13.40
2019-05-22T09:11:40.340Z,13.20
2019-05-22T09:14:09.448Z,13.10
2019-05-22T09:16:39.150Z,13.10
2019-05-22T09:19:08.367Z,13.20
2019-05-22T09:21:40.549Z,13.20
2019-05-22T09:24:14.003Z,13.20
2019-05-22T09:26:43.210Z,13.30
2019-05-22T09:29:12.461Z,13.40
2019-05-22T09:31:41.939Z,13.30
2019-05-22T09:34:11.176Z,13.60
2019-05-22T09:36:40.904Z,13.70
2019-05-22T09:39:12.042Z,13.60
2019-05-22T09:41:45.368Z,13.60
2019-05-22T09:44:15.441Z,13.70
2019-05-22T09:46:44.957Z,13.60
2019-05-22T09:49:15.095Z,13.70
2019-05-22T09:51:44.154Z,13.80
2019-05-22T09:54:14.175Z,13.90
2019-05-22T09:56:43.382Z,13.90
2019-05-22T09:59:12.660Z,13.90
2019-05-22T10:01:41.988Z,13.80
2019-05-22T10:04:11.385Z,14.00
2019-05-22T10:06:40.564Z,14.00
2019-05-22T10:09:09.668Z,13.90
2019-05-22T10:11:39.626Z,14.10
2019-05-22T10:14:09.159Z,14.20
2019-05-22T10:16:39.100Z,14.10
2019-05-22T10:19:08.467Z,14.00
2019-05-22T10:21:38.041Z,13.90
2019-05-22T10:24:07.971Z,13.60
2019-05-22T10:26:37.368Z,13.60
2019-05-22T10:29:07.925Z,13.80
2019-05-22T10:31:37.097Z,13.90
2019-05-22T10:34:06.487Z,13.70
2019-05-22T10:36:35.775Z,13.70
2019-05-22T10:39:06.428Z,13.80
2019-05-22T10:41:36.211Z,14.00
2019-05-22T10:44:07.001Z,14.10
2019-05-22T10:46:36.324Z,14.00
2019-05-22T10:49:07.569Z,13.80
2019-05-22T10:51:38.998Z,13.90
2019-05-22T10:54:07.684Z,13.90
2019-05-22T10:56:37.294Z,13.90
2019-05-22T10:59:07.710Z,13.80
2019-05-22T11:01:37.668Z,13.90
2019-05-22T11:04:08.232Z,13.70
2019-05-22T11:06:37.935Z,13.70
2019-05-22T11:09:09.807Z,13.80
2019-05-22T11:11:40.360Z,13.80
2019-05-22T11:14:11.507Z,13.90
2019-05-22T11:16:41.275Z,13.80
2019-05-22T11:19:10.711Z,13.90
2019-05-22T11:21:41.178Z,13.80
2019-05-22T11:24:11.381Z,13.60
2019-05-22T11:26:40.678Z,13.60
2019-05-22T11:29:14.235Z,13.80
2019-05-22T11:31:43.410Z,13.70
2019-05-22T11:34:23.484Z,13.80
2019-05-22T11:36:53.603Z,13.80
2019-05-22T11:39:38.438Z,13.90
2019-05-22T11:41:58.600Z,13.90
2019-05-22T11:44:39.473Z,13.80
2019-05-22T11:47:11.583Z,13.80
2019-05-22T11:49:41.218Z,13.70
2019-05-22T11:52:12.223Z,13.80
2019-05-22T11:54:41.467Z,13.80
2019-05-22T11:57:11.951Z,13.80
2019-05-22T11:59:41.943Z,13.70
2019-05-22T12:02:13.421Z,13.60
2019-05-22T12:04:47.997Z,13.80
2019-05-22T12:07:17.979Z,13.80
2019-05-22T12:09:47.428Z,13.80
2019-05-22T12:12:17.243Z,13.90
2019-05-22T12:14:46.494Z,13.80
2019-05-22T12:17:16.405Z,13.80
2019-05-22T12:19:46.524Z,13.70
2019-05-22T12:22:19.681Z,13.90
2019-05-22T12:24:47.834Z,13.90
2019-05-22T12:27:17.088Z,13.80
2019-05-22T12:29:46.610Z,13.70
2019-05-22T12:32:16.318Z,13.70
2019-05-22T12:34:45.475Z,13.80
2019-05-22T12:37:15.379Z,13.80
2019-05-22T12:39:44.678Z,13.80
2019-05-22T12:42:16.652Z,13.80
2019-05-22T12:44:45.975Z,13.90
2019-05-22T12:47:16.490Z,13.90
2019-05-22T12:49:46.518Z,13.70
2019-05-22T12:52:16.039Z,13.70
2019-05-22T12:54:51.510Z,13.60
2019-05-22T12:57:17.845Z,13.70
2019-05-22T12:59:47.744Z,13.90
2019-05-22T13:02:18.278Z,13.80
2019-05-22T13:04:49.389Z,13.60
2019-05-22T13:07:19.013Z,13.60
2019-05-22T13:09:49.007Z,13.70
2019-05-22T13:12:18.255Z,13.70
2019-05-22T13:14:47.877Z,13.70
2019-05-22T13:17:17.227Z,13.70
2019-05-22T13:19:47.621Z,13.60
2019-05-22T13:22:17.106Z,13.60
2019-05-22T13:24:46.346Z,13.60
2019-05-22T13:27:17.813Z,13.60
2019-05-22T13:29:48.473Z,13.60
2019-05-22T13:32:20.237Z,13.50
2019-05-22T13:34:50.482Z,13.50
2019-05-22T13:37:19.734Z,13.30
2019-05-22T13:39:49.002Z,13.40
2019-05-22T13:42:18.292Z,13.50
2019-05-22T13:44:49.258Z,13.40
2019-05-22T13:47:19.030Z,13.40
2019-05-22T13:49:48.754Z,13.50
2019-05-22T13:52:20.659Z,13.40
2019-05-22T13:54:51.486Z,13.40
2019-05-22T13:57:21.097Z,13.50
2019-05-22T13:59:53.442Z,13.50
2019-05-22T14:02:27.009Z,13.40
2019-05-22T14:04:55.316Z,13.30
2019-05-22T14:07:24.951Z,13.20
2019-05-22T14:09:54.508Z,13.20
2019-05-22T14:12:23.830Z,13.20
2019-05-22T14:14:53.025Z,13.20
2019-05-22T14:17:22.369Z,13.20
2019-05-22T14:19:51.706Z,13.20
2019-05-22T14:22:21.227Z,13.20
2019-05-22T14:24:50.510Z,13.30
2019-05-22T14:27:20.273Z,13.30
2019-05-22T14:29:49.742Z,13.40
2019-05-22T14:32:19.384Z,13.40
2019-05-22T14:34:48.708Z,13.50
2019-05-22T14:37:18.557Z,13.30
2019-05-22T14:39:48.970Z,13.30
2019-05-22T14:42:18.576Z,13.40
2019-05-22T14:44:47.880Z,13.50
2019-05-22T14:47:17.643Z,13.50
2019-05-22T14:49:47.689Z,13.60
2019-05-22T14:52:17.507Z,13.60
2019-05-22T14:54:47.385Z,13.70
2019-05-22T14:57:17.528Z,13.60
2019-05-22T14:59:46.724Z,13.60
2019-05-22T15:02:16.170Z,13.50
2019-05-22T15:04:45.711Z,13.50
2019-05-22T15:07:14.896Z,13.50
2019-05-22T15:09:44.204Z,13.50
2019-05-22T15:12:13.746Z,13.40
2019-05-22T15:14:43.010Z,13.50
2019-05-22T15:17:28.613Z,13.40
2019-05-22T15:19:43.343Z,13.40
2019-05-22T15:22:13.582Z,13.30
2019-05-22T15:24:42.870Z,13.40
2019-05-22T15:27:13.753Z,13.30
2019-05-22T15:29:43.336Z,13.30
2019-05-22T15:32:14.071Z,13.30
2019-05-22T15:34:44.309Z,13.30
2019-05-22T15:37:15.051Z,13.30
2019-05-22T15:39:45.166Z,13.40
2019-05-22T15:42:33.186Z,13.30
2019-05-22T15:45:03.968Z,13.40
2019-05-22T15:47:52.436Z,13.40
2019-05-22T15:50:08.051Z,13.30
2019-05-22T15:52:40.063Z,13.30
2019-05-22T15:55:15.475Z,13.30
2019-05-22T15:57:47.077Z,13.40
2019-05-22T16:00:21.570Z,13.40
2019-05-22T16:02:51.083Z,13.40
2019-05-22T16:05:23.008Z,13.40
2019-05-22T16:07:52.923Z,13.40
2019-05-22T16:10:25.426Z,13.50
2019-05-22T16:12:56.294Z,13.50
2019-05-22T16:15:26.846Z,13.40
2019-05-22T16:18:10.873Z,13.30
2019-05-22T16:20:28.977Z,13.40
2019-05-22T16:22:59.321Z,13.40
2019-05-22T16:25:29.059Z,13.40
2019-05-22T16:27:58.833Z,13.40
2019-05-22T16:30:28.480Z,13.50
2019-05-22T16:32:58.207Z,13.60
2019-05-22T16:35:29.332Z,13.40
2019-05-22T16:37:58.782Z,13.40
2019-05-22T16:40:28.601Z,13.40
2019-05-22T16:43:00.219Z,13.50
2019-05-22T16:45:33.225Z,13.40
2019-05-22T16:48:08.334Z,13.50
2019-05-22T16:50:41.876Z,13.50
2019-05-22T16:53:14.088Z,13.40
2019-05-22T16:55:44.190Z,13.50
2019-05-22T16:58:14.136Z,13.50
2019-05-22T17:00:44.190Z,13.50
2019-05-22T17:03:15.983Z,13.50
2019-05-22T17:05:46.268Z,13.50
2019-05-22T17:08:16.665Z,13.40
2019-05-22T17:10:46.357Z,13.30
2019-05-22T17:13:17.399Z,13.50
2019-05-22T17:15:47.064Z,13.40
2019-05-22T17:18:17.348Z,13.40
2019-05-22T17:20:47.577Z,13.40
2019-05-22T17:23:17.622Z,13.50
2019-05-22T17:25:47.268Z,13.50
2019-05-22T17:28:17.494Z,13.50
2019-05-22T17:30:49.171Z,13.50
2019-05-22T17:33:18.628Z,13.60
2019-05-22T17:35:48.284Z,13.60
2019-05-22T17:38:18.112Z,13.60
2019-05-22T17:40:48.381Z,13.60
2019-05-22T17:43:19.332Z,13.60
2019-05-22T17:45:49.925Z,13.60
2019-05-22T17:48:19.968Z,13.60
2019-05-22T17:50:49.569Z,13.50
2019-05-22T17:53:19.346Z,13.50
2019-05-22T17:55:49.786Z,13.50
2019-05-22T17:58:19.209Z,13.60
2019-05-22T18:00:54.095Z,13.60
2019-05-22T18:03:21.043Z,13.50
2019-05-22T18:05:50.378Z,13.50
2019-05-22T18:08:20.788Z,13.50
2019-05-22T18:10:51.065Z,13.50
2019-05-22T18:13:21.142Z,13.60
2019-05-22T18:15:50.962Z,13.50
2019-05-22T18:18:20.486Z,13.50
2019-05-22T18:20:50.017Z,13.50
2019-05-22T18:23:19.364Z,13.50
2019-05-22T18:25:48.823Z,13.40
2019-05-22T18:28:18.381Z,13.50
2019-05-22T18:30:47.817Z,13.50
2019-05-22T18:33:17.501Z,13.40
2019-05-22T18:35:47.446Z,13.40
2019-05-22T18:38:16.661Z,13.50
2019-05-22T18:40:46.292Z,13.40
2019-05-22T18:43:18.854Z,13.40
2019-05-22T18:45:47.734Z,13.40
2019-05-22T18:48:17.376Z,13.40
2019-05-22T18:50:50.534Z,13.30
2019-05-22T18:53:19.836Z,13.30
2019-05-22T18:55:49.337Z,13.40
2019-05-22T18:58:18.677Z,13.40
2019-05-22T19:00:48.356Z,13.40
2019-05-22T19:03:17.536Z,13.40
2019-05-22T19:05:46.922Z,13.50
2019-05-22T19:08:16.060Z,13.50
2019-05-22T19:10:45.670Z,13.40
2019-05-22T19:13:14.936Z,13.40
2019-05-22T19:15:44.374Z,13.40
2019-05-22T19:18:13.608Z,13.40
2019-05-22T19:20:43.343Z,13.40
2019-05-22T19:23:12.735Z,13.40
2019-05-22T19:25:42.102Z,13.50
2019-05-22T19:28:11.375Z,13.40
2019-05-22T19:30:40.760Z,13.40
2019-05-22T19:33:09.990Z,13.50
2019-05-22T19:35:39.329Z,13.50
2019-05-22T19:38:09.245Z,13.50
2019-05-22T19:40:38.763Z,13.50
2019-05-22T19:43:08.276Z,13.50
2019-05-22T19:45:38.155Z,13.50
2019-05-22T19:48:08.305Z,13.50
2019-05-22T19:50:37.827Z,13.50
2019-05-22T19:53:18.338Z,13.50
2019-05-22T19:55:37.894Z,13.50
2019-05-22T19:58:07.304Z,13.40
2019-05-22T20:00:38.008Z,13.40
2019-05-22T20:03:07.379Z,13.40
2019-05-22T20:05:36.937Z,13.40
2019-05-22T20:08:07.169Z,13.40
2019-05-22T20:10:36.422Z,13.50
2019-05-22T20:13:06.501Z,13.40
2019-05-22T20:15:36.383Z,13.40
2019-05-22T20:18:06.051Z,13.30
2019-05-22T20:20:35.388Z,13.30
2019-05-22T20:23:05.345Z,13.30
2019-05-22T20:25:34.874Z,13.20
2019-05-22T20:28:05.109Z,13.20
2019-05-22T20:30:34.331Z,13.30
2019-05-22T20:33:05.107Z,13.20
2019-05-22T20:35:34.401Z,13.20
2019-05-22T20:38:04.567Z,13.20
2019-05-22T20:40:34.698Z,13.20
2019-05-22T20:43:05.942Z,13.20
2019-05-22T20:45:35.989Z,13.20
2019-05-22T20:48:14.669Z,13.20
2019-05-22T20:50:44.805Z,13.20
2019-05-22T20:53:16.331Z,13.20
2019-05-22T20:55:46.774Z,13.20
2019-05-22T20:58:17.881Z,13.20
2019-05-22T21:00:49.147Z,13.10
2019-05-22T21:03:18.893Z,13.10
2019-05-22T21:05:51.236Z,13.20
2019-05-22T21:08:24.470Z,13.20
2019-05-22T21:10:54.298Z,13.10
2019-05-22T21:13:23.878Z,13.10
2019-05-22T21:15:55.202Z,13.00
2019-05-22T21:18:46.455Z,13.10
2019-05-22T21:21:16.624Z,13.10
2019-05-22T21:23:45.827Z,13.10
2019-05-22T21:26:18.420Z,13.10
2019-05-22T21:28:48.600Z,13.10
2019-05-22T21:31:18.655Z,13.00
2019-05-22T21:33:48.338Z,13.10
2019-05-22T21:36:19.172Z,13.00
2019-05-22T21:38:49.131Z,13.00
2019-05-22T21:41:21.165Z,13.00
2019-05-22T21:43:52.387Z,13.00
2019-05-22T21:46:22.162Z,13.00
2019-05-22T21:48:53.635Z,13.00
2019-05-22T21:51:23.533Z,13.00
2019-05-22T21:53:54.295Z,13.00
2019-05-22T21:56:24.563Z,13.00
2019-05-22T21:58:54.411Z,13.00
2019-05-22T22:01:42.654Z,13.00
2019-05-22T22:04:18.131Z,13.00
2019-05-22T22:06:48.004Z,13.00
2019-05-22T22:09:18.468Z,13.00
2019-05-22T22:11:48.388Z,13.00
2019-05-22T22:14:18.205Z,12.90
2019-05-22T22:16:48.347Z,12.90
2019-05-22T22:19:20.081Z,12.90
2019-05-22T22:21:50.493Z,13.00
2019-05-22T22:24:20.172Z,12.90
2019-05-22T22:26:49.600Z,12.90
2019-05-22T22:29:19.111Z,12.90
2019-05-22T22:31:48.565Z,12.90
2019-05-22T22:34:27.729Z,12.90
2019-05-22T22:36:58.079Z,12.90
2019-05-22T22:39:28.233Z,12.90
2019-05-22T22:41:59.574Z,12.90
2019-05-22T22:44:30.898Z,12.80
2019-05-22T22:47:06.192Z,12.80
2019-05-22T22:49:37.922Z,12.80
2019-05-22T22:52:07.817Z,12.90
2019-05-22T22:54:37.142Z,12.80
2019-05-22T22:57:09.289Z,12.80
2019-05-22T22:59:38.689Z,12.70
2019-05-22T23:12:09.755Z,12.60
2019-05-22T23:14:42.622Z,12.70
2019-05-22T23:17:12.825Z,12.60
2019-05-22T23:19:44.836Z,12.70
2019-05-22T23:22:19.604Z,12.60
2019-05-22T23:24:51.997Z,12.60
2019-05-22T23:27:22.665Z,12.60
2019-05-22T23:29:52.279Z,12.50
2019-05-22T23:32:23.088Z,12.60
2019-05-22T23:34:54.199Z,12.50
2019-05-22T23:37:25.815Z,12.50
2019-05-22T23:39:57.708Z,12.50
2019-05-22T23:42:34.467Z,12.40
2019-05-22T23:45:06.962Z,12.50
2019-05-22T23:47:43.231Z,12.50
2019-05-22T23:50:13.443Z,12.50
2019-05-22T23:52:43.043Z,12.50
2019-05-22T23:55:14.729Z,12.40
2019-05-22T23:57:43.688Z,12.40
